Terminal Aerodrome Forecast
Issued by NWS

Home | Current Version | Previous Version | Text Only | Print | Product List | Glossary On
Versions: 1 2 3 4 5 6 7 8 9 10 11 12 13 14 15 16 17 18 19 20 21 22 23 24 25 26 27 28 29
000
FTPA31 PHFO 231500 AAA
TAFMKK
TAF AMD
PHMK 231513Z 2315/2412 05010KT P6SM SCT025 SCT050
      TEMPO 2315/2318 05010G20KT
     FM231800 05015G22KT P6SM FEW025 SCT050
     FM240600 05012KT P6SM SCT025 SCT050
     FM240900 05005KT P6SM SCT025 SCT050=

USA.gov is the U.S. government's official web portal to all federal, state and local government web resources and services.